createdAt,value
2019-01-13T00:01:15.950Z,101718.64
2019-01-13T00:04:19.482Z,101713.90
2019-01-13T00:07:23.021Z,101716.89
2019-01-13T00:10:27.814Z,101709.62
2019-01-13T00:13:32.936Z,101715.99
2019-01-13T00:16:36.742Z,101711.95
2019-01-13T00:19:40.427Z,101708.82
2019-01-13T00:22:44.286Z,101701.71
2019-01-13T00:25:47.871Z,101714.34
2019-01-13T00:28:51.550Z,101706.25
2019-01-13T00:31:55.381Z,101701.81
2019-01-13T00:34:58.997Z,101705.46
2019-01-13T00:38:02.654Z,101697.45
2019-01-13T00:41:06.285Z,101699.40
2019-01-13T00:44:09.906Z,101702.64
2019-01-13T00:47:13.470Z,101710.53
2019-01-13T00:50:17.080Z,101712.31
2019-01-13T00:53:20.586Z,101717.06
2019-01-13T00:56:24.146Z,101719.54
2019-01-13T00:59:27.744Z,101711.98
2019-01-13T01:02:31.439Z,101718.81
2019-01-13T01:05:35.193Z,101713.69
2019-01-13T01:08:38.822Z,101715.68
2019-01-13T01:11:42.538Z,101717.29
2019-01-13T01:14:46.073Z,101712.62
2019-01-13T01:17:51.575Z,101721.99
2019-01-13T01:20:55.114Z,101730.14
2019-01-13T01:23:58.743Z,101731.00
2019-01-13T01:27:02.302Z,101732.66
2019-01-13T01:30:10.688Z,101732.60
2019-01-13T01:33:14.239Z,101735.48
2019-01-13T01:36:17.847Z,101742.33
2019-01-13T01:39:21.486Z,101746.49
2019-01-13T01:42:25.108Z,101752.60
2019-01-13T01:45:28.682Z,101750.71
2019-01-13T01:48:32.171Z,101753.92
2019-01-13T01:51:35.887Z,101760.48
2019-01-13T01:54:39.509Z,101765.26
2019-01-13T01:57:43.164Z,101761.44
2019-01-13T02:00:46.799Z,101764.53
2019-01-13T02:03:50.486Z,101762.16
2019-01-13T02:06:54.004Z,101757.57
2019-01-13T02:09:57.629Z,101749.81
2019-01-13T02:13:01.266Z,101747.23
2019-01-13T02:16:04.840Z,101735.82
2019-01-13T02:19:08.424Z,101740.23
2019-01-13T02:22:12.025Z,101735.87
2019-01-13T02:25:16.963Z,101720.73
2019-01-13T02:28:20.471Z,101716.13
2019-01-13T02:31:24.097Z,101719.87
2019-01-13T02:34:27.682Z,101722.74
2019-01-13T02:37:31.261Z,101713.47
2019-01-13T02:40:34.776Z,101715.62
2019-01-13T02:43:38.349Z,101702.22
2019-01-13T02:46:41.897Z,101703.22
2019-01-13T02:49:45.468Z,101701.91
2019-01-13T02:52:48.961Z,101698.94
2019-01-13T02:55:52.489Z,101711.15
2019-01-13T02:58:55.943Z,101704.16
2019-01-13T03:01:59.453Z,101702.82
2019-01-13T03:05:02.985Z,101701.12
2019-01-13T03:08:06.398Z,101695.95
2019-01-13T03:11:09.931Z,101700.02
2019-01-13T03:14:13.487Z,101706.11
2019-01-13T03:17:17.098Z,101699.81
2019-01-13T03:20:20.694Z,101707.72
2019-01-13T03:23:24.222Z,101708.43
2019-01-13T03:26:27.761Z,101704.67
2019-01-13T03:29:31.304Z,101697.95
2019-01-13T03:32:34.876Z,101689.71
2019-01-13T03:35:38.351Z,101687.36
2019-01-13T03:38:41.835Z,101683.87
2019-01-13T03:41:45.441Z,101673.21
2019-01-13T03:44:49.018Z,101673.86
2019-01-13T03:47:52.512Z,101665.47
2019-01-13T03:50:56.867Z,101660.55
2019-01-13T03:53:59.606Z,101663.98
2019-01-13T03:57:03.076Z,101660.63
2019-01-13T04:00:10.013Z,101646.21
2019-01-13T04:03:13.506Z,101646.65
2019-01-13T04:06:16.961Z,101637.53
2019-01-13T04:09:20.559Z,101624.93
2019-01-13T04:12:24.009Z,101635.31
2019-01-13T04:15:45.664Z,101641.90
2019-01-13T04:18:49.093Z,101643.48
2019-01-13T04:21:52.703Z,101644.65
2019-01-13T04:24:56.156Z,101634.00
2019-01-13T04:27:59.674Z,101632.85
2019-01-13T04:31:03.133Z,101625.42
2019-01-13T04:34:06.646Z,101632.84
2019-01-13T04:37:10.095Z,101635.26
2019-01-13T04:40:13.622Z,101639.41
2019-01-13T04:43:17.106Z,101638.15
2019-01-13T04:46:20.570Z,101633.13
2019-01-13T04:49:24.085Z,101634.00
2019-01-13T04:52:27.534Z,101634.26
2019-01-13T04:55:31.075Z,101644.48
2019-01-13T04:58:34.549Z,101629.63
2019-01-13T05:01:38.086Z,101628.13
2019-01-13T05:04:41.559Z,101616.36
2019-01-13T05:07:45.062Z,101611.35
2019-01-13T05:10:48.538Z,101606.27
2019-01-13T05:13:52.052Z,101604.41
2019-01-13T05:16:55.571Z,101606.98
2019-01-13T05:19:59.126Z,101601.82
2019-01-13T05:23:02.586Z,101593.78
2019-01-13T05:26:06.202Z,101591.41
2019-01-13T05:29:09.695Z,101580.76
2019-01-13T05:32:13.201Z,101562.75
2019-01-13T05:35:16.736Z,101563.43
2019-01-13T05:38:20.145Z,101550.37
2019-01-13T05:41:24.534Z,101538.44
2019-01-13T05:44:27.980Z,101536.81
2019-01-13T05:47:31.594Z,101530.43
2019-01-13T05:50:35.021Z,101538.92
2019-01-13T05:53:38.517Z,101525.78
2019-01-13T05:56:41.869Z,101529.20
2019-01-13T05:59:45.439Z,101522.57
2019-01-13T06:02:48.985Z,101519.44
2019-01-13T06:05:52.447Z,101512.66
2019-01-13T06:08:55.951Z,101511.33
2019-01-13T06:11:59.621Z,101520.96
2019-01-13T06:15:03.144Z,101516.57
2019-01-13T06:18:06.764Z,101510.98
2019-01-13T06:21:10.391Z,101515.28
2019-01-13T06:24:14.024Z,101515.31
2019-01-13T06:27:17.513Z,101516.98
2019-01-13T06:30:22.613Z,101519.01
2019-01-13T06:33:26.308Z,101505.99
2019-01-13T06:36:29.916Z,101493.90
2019-01-13T06:39:33.562Z,101488.53
2019-01-13T06:42:37.168Z,101480.13
2019-01-13T06:45:40.582Z,101477.42
2019-01-13T06:48:44.000Z,101472.33
2019-01-13T06:51:47.563Z,101477.54
2019-01-13T06:54:51.143Z,101470.07
2019-01-13T06:57:54.688Z,101479.75
2019-01-13T07:00:58.216Z,101468.25
2019-01-13T07:04:01.702Z,101459.66
2019-01-13T07:07:05.180Z,101451.73
2019-01-13T07:10:13.158Z,101448.22
2019-01-13T07:13:16.703Z,101448.69
2019-01-13T07:16:20.135Z,101456.46
2019-01-13T07:19:23.608Z,101461.66
2019-01-13T07:22:27.106Z,101454.85
2019-01-13T07:25:30.740Z,101438.55
2019-01-13T07:28:34.317Z,101430.17
2019-01-13T07:31:37.941Z,101428.08
2019-01-13T07:34:41.402Z,101437.66
2019-01-13T07:37:45.002Z,101424.06
2019-01-13T07:40:48.421Z,101416.41
2019-01-13T07:43:52.069Z,101419.72
2019-01-13T07:46:55.616Z,101425.10
2019-01-13T07:49:59.265Z,101410.00
2019-01-13T07:53:02.796Z,101404.97
2019-01-13T07:56:06.268Z,101394.13
2019-01-13T07:59:09.906Z,101405.49
2019-01-13T08:02:17.790Z,101407.63
2019-01-13T08:05:17.258Z,101411.53
2019-01-13T08:08:20.824Z,101419.40
2019-01-13T08:11:24.349Z,101416.54
2019-01-13T08:14:27.772Z,101415.36
2019-01-13T08:17:31.352Z,101423.54
2019-01-13T08:20:34.800Z,101427.53
2019-01-13T08:23:38.354Z,101424.64
2019-01-13T08:26:41.916Z,101424.66
2019-01-13T08:29:45.507Z,101421.98
2019-01-13T08:32:49.136Z,101407.83
2019-01-13T08:35:52.621Z,101404.15
2019-01-13T08:38:56.151Z,101407.63
2019-01-13T08:42:00.723Z,101400.10
2019-01-13T08:45:05.127Z,101395.89
2019-01-13T08:48:09.633Z,101401.72
2019-01-13T08:51:13.257Z,101406.15
2019-01-13T08:54:16.722Z,101410.20
2019-01-13T08:57:20.256Z,101406.91
2019-01-13T09:00:28.620Z,101395.98
2019-01-13T09:03:32.192Z,101398.94
2019-01-13T09:06:35.713Z,101398.24
2019-01-13T09:09:40.272Z,101394.94
2019-01-13T09:12:44.693Z,101394.85
2019-01-13T09:15:48.274Z,101394.06
2019-01-13T09:18:51.871Z,101386.81
2019-01-13T09:21:55.364Z,101394.73
2019-01-13T09:24:58.984Z,101392.36
2019-01-13T09:28:03.696Z,101387.48
2019-01-13T09:31:06.300Z,101381.58
2019-01-13T09:34:09.885Z,101374.20
2019-01-13T09:37:13.447Z,101377.03
2019-01-13T09:40:20.399Z,101369.79
2019-01-13T09:43:24.105Z,101361.48
2019-01-13T09:46:27.816Z,101349.89
2019-01-13T09:49:31.318Z,101352.10
2019-01-13T09:52:35.892Z,101339.15
2019-01-13T09:55:39.330Z,101339.45
2019-01-13T09:58:42.858Z,101320.42
2019-01-13T10:01:46.449Z,101308.64
2019-01-13T10:04:50.040Z,101302.00
2019-01-13T10:07:53.535Z,101297.93
2019-01-13T10:10:57.066Z,101288.65
2019-01-13T10:14:00.549Z,101276.58
2019-01-13T10:17:04.130Z,101284.52
2019-01-13T10:20:08.926Z,101266.10
2019-01-13T10:23:12.469Z,101264.19
2019-01-13T10:26:16.177Z,101250.91
2019-01-13T10:29:19.643Z,101246.92
2019-01-13T10:32:23.561Z,101236.64
2019-01-13T10:35:27.243Z,101232.13
2019-01-13T10:38:30.732Z,101224.09
2019-01-13T10:41:34.154Z,101220.25
2019-01-13T10:44:37.682Z,101218.79
2019-01-13T10:47:41.226Z,101213.26
2019-01-13T10:50:44.692Z,101201.82
2019-01-13T10:53:48.199Z,101195.67
2019-01-13T10:56:51.666Z,101183.68
2019-01-13T10:59:55.040Z,101176.27
2019-01-13T11:03:08.480Z,101175.70
2019-01-13T11:06:17.915Z,101177.93
2019-01-13T11:09:24.353Z,101173.45
2019-01-13T11:12:29.684Z,101162.66
2019-01-13T11:15:35.111Z,101158.22
2019-01-13T11:18:47.072Z,101155.06
2019-01-13T11:21:54.718Z,101146.67
2019-01-13T11:25:01.977Z,101130.12
2019-01-13T11:28:07.376Z,101132.21
2019-01-13T11:31:15.899Z,101122.65
2019-01-13T11:34:22.597Z,101114.86
2019-01-13T11:37:31.275Z,101092.29
2019-01-13T11:40:36.960Z,101086.58
2019-01-13T11:43:43.738Z,101096.01
2019-01-13T11:46:52.309Z,101093.35
2019-01-13T11:49:59.679Z,101099.34
2019-01-13T11:53:06.193Z,101103.11
2019-01-13T11:56:16.663Z,101080.79
2019-01-13T11:59:29.681Z,101091.85
2019-01-13T12:02:38.722Z,101097.84
2019-01-13T12:05:50.790Z,101097.30
2019-01-13T12:09:02.704Z,101085.56
2019-01-13T12:12:11.964Z,101068.68
2019-01-13T12:15:20.757Z,101062.60
2019-01-13T12:18:26.509Z,101053.50
2019-01-13T12:21:31.018Z,101041.68
2019-01-13T12:24:39.101Z,101029.71
2019-01-13T12:27:46.219Z,101014.53
2019-01-13T12:30:53.802Z,101009.72
2019-01-13T12:33:58.103Z,101004.74
2019-01-13T12:37:08.514Z,100998.79
2019-01-13T12:40:18.220Z,100995.40
2019-01-13T12:43:22.642Z,100996.07
2019-01-13T12:46:33.026Z,100997.65
2019-01-13T12:49:40.903Z,100999.86
2019-01-13T12:52:48.443Z,100986.64
2019-01-13T12:55:53.186Z,100995.72
2019-01-13T12:59:00.587Z,100988.12
2019-01-13T13:02:09.354Z,100982.59
2019-01-13T13:05:17.234Z,100980.95
2019-01-13T13:08:25.607Z,100978.24
2019-01-13T13:11:32.825Z,100977.07
2019-01-13T13:14:42.564Z,100987.07
2019-01-13T13:17:50.577Z,100967.30
2019-01-13T13:21:02.965Z,100978.13
2019-01-13T13:24:11.950Z,100965.67
2019-01-13T13:27:18.478Z,100958.61
2019-01-13T13:30:27.206Z,100948.96
2019-01-13T13:33:39.059Z,100936.11
2019-01-13T13:36:50.438Z,100932.31
2019-01-13T13:40:00.547Z,100925.59
2019-01-13T13:43:07.036Z,100922.89
2019-01-13T13:46:10.906Z,100917.15
2019-01-13T13:49:14.574Z,100917.03
2019-01-13T13:52:18.136Z,100926.03
2019-01-13T13:55:21.744Z,100922.56
2019-01-13T13:58:25.446Z,100921.24
2019-01-13T14:01:29.061Z,100906.43
2019-01-13T14:04:32.758Z,100890.46
2019-01-13T14:07:36.328Z,100879.12
2019-01-13T14:10:41.387Z,100882.48
2019-01-13T14:13:44.898Z,100873.48
2019-01-13T14:16:48.512Z,100881.07
2019-01-13T14:19:52.058Z,100887.65
2019-01-13T14:22:55.557Z,100893.25
2019-01-13T14:25:59.062Z,100886.11
2019-01-13T14:29:02.515Z,100881.52
2019-01-13T14:32:06.172Z,100875.14
2019-01-13T14:35:09.745Z,100865.91
2019-01-13T14:38:13.297Z,100862.47
2019-01-13T14:41:17.988Z,100853.14
2019-01-13T14:44:21.575Z,100840.67
2019-01-13T14:47:25.121Z,100844.57
2019-01-13T14:50:31.879Z,100824.81
2019-01-13T14:53:35.453Z,100820.57
2019-01-13T14:56:38.906Z,100811.87
2019-01-13T14:59:42.570Z,100815.91
2019-01-13T15:02:46.159Z,100822.62
2019-01-13T15:05:49.632Z,100817.63
2019-01-13T15:08:53.012Z,100800.93
2019-01-13T15:11:56.562Z,100805.40
2019-01-13T15:14:59.981Z,100798.24
2019-01-13T15:18:03.750Z,100793.43
2019-01-13T15:21:09.307Z,100777.79
2019-01-13T15:24:12.862Z,100780.01
2019-01-13T15:27:16.468Z,100786.39
2019-01-13T15:30:23.083Z,100785.01
2019-01-13T15:33:26.586Z,100770.36
2019-01-13T15:36:30.146Z,100766.97
2019-01-13T15:39:33.705Z,100762.75
2019-01-13T15:42:37.159Z,100746.35
2019-01-13T15:45:40.684Z,100749.01
2019-01-13T15:48:44.419Z,100751.66
2019-01-13T15:51:48.077Z,100756.00
2019-01-13T15:54:52.139Z,100738.31
2019-01-13T15:57:55.668Z,100739.37
2019-01-13T16:00:59.306Z,100743.03
2019-01-13T16:04:02.858Z,100728.28
2019-01-13T16:07:06.398Z,100718.44
2019-01-13T16:10:13.047Z,100723.45
2019-01-13T16:13:16.609Z,100703.90
2019-01-13T16:16:20.204Z,100706.87
2019-01-13T16:19:24.709Z,100699.32
2019-01-13T16:22:28.175Z,100691.17
2019-01-13T16:25:32.000Z,100696.17
2019-01-13T16:28:35.372Z,100687.87
2019-01-13T16:31:39.709Z,100699.64
2019-01-13T16:34:44.703Z,100697.90
2019-01-13T16:37:49.904Z,100700.21
2019-01-13T16:40:53.476Z,100681.47
2019-01-13T16:43:57.356Z,100697.62
2019-01-13T16:47:01.066Z,100682.57
2019-01-13T16:50:08.064Z,100676.92
2019-01-13T16:53:11.723Z,100666.70
2019-01-13T16:56:15.276Z,100661.33
2019-01-13T16:59:18.924Z,100650.53
2019-01-13T17:02:22.531Z,100655.30
2019-01-13T17:05:31.153Z,100647.07
2019-01-13T17:08:34.729Z,100657.74
2019-01-13T17:11:38.331Z,100648.20
2019-01-13T17:14:41.889Z,100638.31
2019-01-13T17:17:45.427Z,100646.50
2019-01-13T17:20:49.088Z,100654.68
2019-01-13T17:23:52.591Z,100644.34
2019-01-13T17:26:56.126Z,100658.50
2019-01-13T17:29:59.651Z,100643.60
2019-01-13T17:33:03.372Z,100655.99
2019-01-13T17:36:06.890Z,100655.77
2019-01-13T17:39:10.542Z,100652.18
2019-01-13T17:42:14.331Z,100640.85
2019-01-13T17:45:20.179Z,100616.10
2019-01-13T17:48:23.731Z,100622.49
2019-01-13T17:51:27.390Z,100624.55
2019-01-13T17:54:31.021Z,100623.61
2019-01-13T17:57:34.566Z,100625.75
2019-01-13T18:00:49.366Z,100617.58
2019-01-13T18:03:52.935Z,100599.92
2019-01-13T18:06:56.578Z,100603.32
2019-01-13T18:10:00.050Z,100599.40
2019-01-13T18:13:03.688Z,100590.01
2019-01-13T18:16:07.190Z,100592.49
2019-01-13T18:19:10.970Z,100574.74
2019-01-13T18:22:14.675Z,100567.24
2019-01-13T18:25:18.233Z,100564.67
2019-01-13T18:28:23.909Z,100554.09
2019-01-13T18:31:27.181Z,100548.72
2019-01-13T18:34:31.581Z,100538.23
2019-01-13T18:41:20.490Z,100541.60
2019-01-13T18:44:24.229Z,100547.24
2019-01-13T18:47:27.744Z,100554.41
2019-01-13T18:50:33.221Z,100547.05
2019-01-13T18:53:36.797Z,100545.97
2019-01-13T18:56:42.309Z,100550.52
2019-01-13T18:59:51.009Z,100556.35
2019-01-13T19:02:54.515Z,100545.15
2019-01-13T19:05:58.028Z,100553.06
2019-01-13T19:09:02.531Z,100547.49
2019-01-13T19:12:06.062Z,100560.64
2019-01-13T19:15:12.825Z,100549.61
2019-01-13T19:18:16.753Z,100551.31
2019-01-13T19:21:26.836Z,100541.97
2019-01-13T19:24:33.907Z,100532.91
2019-01-13T19:27:37.835Z,100539.65
2019-01-13T19:30:42.044Z,100537.18
2019-01-13T19:33:45.849Z,100537.88
2019-01-13T19:36:51.576Z,100523.69
2019-01-13T19:39:55.078Z,100529.73
2019-01-13T19:42:59.674Z,100522.66
2019-01-13T19:46:03.237Z,100533.64
2019-01-13T19:49:06.844Z,100534.62
2019-01-13T19:52:10.866Z,100537.91
2019-01-13T19:55:18.827Z,100544.54
2019-01-13T19:58:22.308Z,100540.68
2019-01-13T20:01:25.886Z,100555.81
2019-01-13T20:04:29.543Z,100550.79
2019-01-13T20:07:33.304Z,100546.35
2019-01-13T20:10:36.961Z,100552.50
2019-01-13T20:13:40.668Z,100546.82
2019-01-13T20:16:44.270Z,100536.70
2019-01-13T20:19:47.881Z,100554.18
2019-01-13T20:22:51.405Z,100554.68
2019-01-13T20:25:54.913Z,100551.30
2019-01-13T20:28:58.718Z,100559.56
2019-01-13T20:32:02.334Z,100533.21
2019-01-13T20:35:06.628Z,100548.13
2019-01-13T20:38:10.048Z,100535.46
2019-01-13T20:41:13.620Z,100530.60
2019-01-13T20:44:17.181Z,100537.74
2019-01-13T20:47:21.049Z,100539.16
2019-01-13T20:50:25.545Z,100551.92
2019-01-13T20:53:28.985Z,100546.92
2019-01-13T20:56:32.474Z,100547.64
2019-01-13T20:59:36.128Z,100535.68
2019-01-13T21:02:40.701Z,100535.36
2019-01-13T21:05:44.271Z,100546.55
2019-01-13T21:08:47.838Z,100546.15
2019-01-13T21:11:51.707Z,100538.50
2019-01-13T21:14:55.178Z,100563.51
2019-01-13T21:17:58.633Z,100569.39
2019-01-13T21:21:02.053Z,100568.22
2019-01-13T21:24:05.550Z,100573.84
2019-01-13T21:27:09.101Z,100581.76
2019-01-13T21:30:17.662Z,100579.62
2019-01-13T21:33:21.121Z,100580.60
2019-01-13T21:36:24.510Z,100577.51
2019-01-13T21:39:28.050Z,100571.86
2019-01-13T21:42:31.664Z,100570.99
2019-01-13T21:45:36.511Z,100570.20
2019-01-13T21:48:38.802Z,100575.29
2019-01-13T21:51:42.334Z,100583.51
2019-01-13T21:54:45.914Z,100578.24
2019-01-13T21:57:49.557Z,100589.97
2019-01-13T22:00:54.106Z,100586.03
2019-01-13T22:03:57.639Z,100589.12
2019-01-13T22:07:01.151Z,100597.25
2019-01-13T22:10:06.082Z,100596.99
2019-01-13T22:13:09.543Z,100596.91
2019-01-13T22:16:13.048Z,100599.76
2019-01-13T22:19:16.442Z,100605.45
2019-01-13T22:22:19.972Z,100612.40
2019-01-13T22:25:23.498Z,100621.60
2019-01-13T22:28:26.917Z,100627.35
2019-01-13T22:31:30.428Z,100625.48
2019-01-13T22:34:33.953Z,100622.30
2019-01-13T22:37:37.506Z,100625.25
2019-01-13T22:40:41.577Z,100630.78
2019-01-13T22:43:46.271Z,100636.88
2019-01-13T22:46:49.674Z,100641.93
2019-01-13T22:49:54.105Z,100648.10
2019-01-13T22:52:57.853Z,100660.40
2019-01-13T22:56:01.309Z,100690.18
2019-01-13T22:59:04.997Z,100680.22
2019-01-13T23:02:08.443Z,100677.07
2019-01-13T23:05:12.048Z,100681.74
2019-01-13T23:08:15.555Z,100680.25
2019-01-13T23:11:19.142Z,100670.22
2019-01-13T23:14:22.651Z,100672.48
2019-01-13T23:17:26.161Z,100678.85
2019-01-13T23:20:29.664Z,100673.21
2019-01-13T23:23:33.147Z,100675.19
2019-01-13T23:26:36.622Z,100683.43
2019-01-13T23:29:40.041Z,100688.82
2019-01-13T23:32:43.478Z,100694.91
2019-01-13T23:35:46.987Z,100695.59
2019-01-13T23:38:50.421Z,100696.61
2019-01-13T23:41:53.959Z,100698.87
2019-01-13T23:44:57.368Z,100700.18
2019-01-13T23:48:00.946Z,100694.60
2019-01-13T23:51:04.451Z,100694.98
2019-01-13T23:54:07.877Z,100701.88
2019-01-13T23:57:11.376Z,100712.68
